sensor_id;sensor_type;location;lat;lon;timestamp;pressure;altitude;pressure_sealevel;temperature;humidity
64610;BME280;51019;46.090;6.350;2023-05-07T00:01:13;96439.13;;;13.30;100.00
64610;BME280;51019;46.090;6.350;2023-05-07T00:03:43;96436.81;;;13.27;100.00
64610;BME280;51019;46.090;6.350;2023-05-07T00:06:11;96417.16;;;13.14;100.00
64610;BME280;51019;46.090;6.350;2023-05-07T00:08:41;96431.06;;;13.32;100.00
64610;BME280;51019;46.090;6.350;2023-05-07T00:11:09;96423.97;;;13.24;100.00
64610;BME280;51019;46.090;6.350;2023-05-07T00:13:37;96435.63;;;13.22;100.00
64610;BME280;51019;46.090;6.350;2023-05-07T00:16:05;96439.75;;;13.24;100.00
64610;BME280;51019;46.090;6.350;2023-05-07T00:18:33;96441.91;;;13.29;100.00
64610;BME280;51019;46.090;6.350;2023-05-07T00:21:03;96451.63;;;13.28;100.00
64610;BME280;51019;46.090;6.350;2023-05-07T00:23:31;96453.91;;;13.23;100.00
64610;BME280;51019;46.090;6.350;2023-05-07T00:25:58;96461.47;;;13.18;100.00
64610;BME280;51019;46.090;6.350;2023-05-07T00:28:26;96453.75;;;13.33;100.00
64610;BME280;51019;46.090;6.350;2023-05-07T00:30:56;96447.53;;;13.42;100.00
64610;BME280;51019;46.090;6.350;2023-05-07T00:33:23;96460.19;;;13.38;100.00
64610;BME280;51019;46.090;6.350;2023-05-07T00:35:52;96464.78;;;13.36;100.00
64610;BME280;51019;46.090;6.350;2023-05-07T00:38:21;96448.84;;;13.30;100.00
64610;BME280;51019;46.090;6.350;2023-05-07T00:40:50;96449.16;;;13.27;100.00
64610;BME280;51019;46.090;6.350;2023-05-07T00:43:18;96450.28;;;13.32;100.00
64610;BME280;51019;46.090;6.350;2023-05-07T00:45:46;96450.13;;;13.34;100.00
64610;BME280;51019;46.090;6.350;2023-05-07T00:48:13;96448.69;;;13.48;100.00
64610;BME280;51019;46.090;6.350;2023-05-07T00:50:42;96450.44;;;13.15;100.00
64610;BME280;51019;46.090;6.350;2023-05-07T00:53:10;96449.41;;;13.07;100.00
64610;BME280;51019;46.090;6.350;2023-05-07T00:55:39;96423.38;;;12.96;100.00
64610;BME280;51019;46.090;6.350;2023-05-07T00:58:07;96428.44;;;12.90;100.00
64610;BME280;51019;46.090;6.350;2023-05-07T01:00:34;96443.16;;;13.08;100.00
64610;BME280;51019;46.090;6.350;2023-05-07T01:03:02;96432.38;;;13.20;100.00
64610;BME280;51019;46.090;6.350;2023-05-07T01:05:30;96441.16;;;13.10;100.00
64610;BME280;51019;46.090;6.350;2023-05-07T01:07:59;96435.63;;;13.22;100.00
64610;BME280;51019;46.090;6.350;2023-05-07T01:10:28;96435.03;;;12.86;100.00
64610;BME280;51019;46.090;6.350;2023-05-07T01:13:02;96450.34;;;12.98;100.00
64610;BME280;51019;46.090;6.350;2023-05-07T01:15:30;96451.97;;;12.57;100.00
64610;BME280;51019;46.090;6.350;2023-05-07T01:17:58;96455.81;;;12.63;100.00
64610;BME280;51019;46.090;6.350;2023-05-07T01:20:27;96455.47;;;12.66;100.00
64610;BME280;51019;46.090;6.350;2023-05-07T01:22:57;96446.81;;;12.73;100.00
64610;BME280;51019;46.090;6.350;2023-05-07T01:25:25;96461.81;;;12.89;100.00
64610;BME280;51019;46.090;6.350;2023-05-07T01:27:53;96469.91;;;12.96;100.00
64610;BME280;51019;46.090;6.350;2023-05-07T01:30:21;96462.59;;;13.16;100.00
64610;BME280;51019;46.090;6.350;2023-05-07T01:32:52;96458.06;;;12.92;100.00
64610;BME280;51019;46.090;6.350;2023-05-07T01:35:26;96467.06;;;12.89;100.00
64610;BME280;51019;46.090;6.350;2023-05-07T01:37:57;96462.56;;;13.07;100.00
64610;BME280;51019;46.090;6.350;2023-05-07T01:40:25;96457.75;;;12.95;100.00
64610;BME280;51019;46.090;6.350;2023-05-07T01:42:54;96448.63;;;13.15;100.00
64610;BME280;51019;46.090;6.350;2023-05-07T01:45:21;96454.13;;;13.46;100.00
64610;BME280;51019;46.090;6.350;2023-05-07T01:47:49;96452.91;;;13.24;100.00
64610;BME280;51019;46.090;6.350;2023-05-07T01:50:18;96442.81;;;13.12;100.00
64610;BME280;51019;46.090;6.350;2023-05-07T01:52:50;96449.00;;;13.36;100.00
64610;BME280;51019;46.090;6.350;2023-05-07T01:55:19;96439.63;;;13.34;100.00
64610;BME280;51019;46.090;6.350;2023-05-07T01:57:47;96445.38;;;13.29;100.00
64610;BME280;51019;46.090;6.350;2023-05-07T02:00:14;96446.81;;;13.16;100.00
64610;BME280;51019;46.090;6.350;2023-05-07T02:02:45;96439.09;;;13.22;100.00
64610;BME280;51019;46.090;6.350;2023-05-07T02:05:12;96448.34;;;13.34;100.00
64610;BME280;51019;46.090;6.350;2023-05-07T02:07:40;96445.38;;;13.29;100.00
64610;BME280;51019;46.090;6.350;2023-05-07T02:10:09;96453.63;;;13.00;100.00
64610;BME280;51019;46.090;6.350;2023-05-07T02:12:39;96451.94;;;13.17;100.00
64610;BME280;51019;46.090;6.350;2023-05-07T02:15:08;96460.75;;;13.08;100.00
64610;BME280;51019;46.090;6.350;2023-05-07T02:17:39;96452.59;;;13.19;100.00
64610;BME280;51019;46.090;6.350;2023-05-07T02:20:25;96456.44;;;13.41;100.00
64610;BME280;51019;46.090;6.350;2023-05-07T02:22:53;96453.94;;;13.31;100.00
64610;BME280;51019;46.090;6.350;2023-05-07T02:25:21;96455.81;;;13.05;100.00
64610;BME280;51019;46.090;6.350;2023-05-07T02:27:52;96463.50;;;12.98;100.00
64610;BME280;51019;46.090;6.350;2023-05-07T02:30:23;96453.47;;;12.94;100.00
64610;BME280;51019;46.090;6.350;2023-05-07T02:32:51;96475.38;;;13.10;100.00
64610;BME280;51019;46.090;6.350;2023-05-07T02:35:19;96470.25;;;13.01;100.00
64610;BME280;51019;46.090;6.350;2023-05-07T02:37:48;96479.47;;;13.05;100.00
64610;BME280;51019;46.090;6.350;2023-05-07T02:40:15;96479.25;;;12.90;100.00
64610;BME280;51019;46.090;6.350;2023-05-07T02:42:44;96491.63;;;12.98;100.00
64610;BME280;51019;46.090;6.350;2023-05-07T02:45:14;96478.19;;;13.09;100.00
64610;BME280;51019;46.090;6.350;2023-05-07T02:47:41;96497.22;;;13.03;100.00
64610;BME280;51019;46.090;6.350;2023-05-07T02:50:10;96506.63;;;13.14;100.00
64610;BME280;51019;46.090;6.350;2023-05-07T02:52:37;96489.00;;;12.98;100.00
64610;BME280;51019;46.090;6.350;2023-05-07T02:55:06;96494.06;;;12.91;100.00
64610;BME280;51019;46.090;6.350;2023-05-07T02:57:35;96510.69;;;12.66;100.00
64610;BME280;51019;46.090;6.350;2023-05-07T03:00:17;96498.75;;;12.80;100.00
64610;BME280;51019;46.090;6.350;2023-05-07T03:02:49;96506.25;;;13.00;100.00
64610;BME280;51019;46.090;6.350;2023-05-07T03:05:17;96507.19;;;13.17;100.00
64610;BME280;51019;46.090;6.350;2023-05-07T03:07:45;96495.16;;;13.15;100.00
64610;BME280;51019;46.090;6.350;2023-05-07T03:10:12;96483.84;;;13.22;100.00
64610;BME280;51019;46.090;6.350;2023-05-07T03:12:40;96482.19;;;13.21;100.00
64610;BME280;51019;46.090;6.350;2023-05-07T03:15:08;96460.81;;;13.24;100.00
64610;BME280;51019;46.090;6.350;2023-05-07T03:17:38;96482.59;;;13.59;100.00
64610;BME280;51019;46.090;6.350;2023-05-07T03:20:07;96497.78;;;13.65;100.00
64610;BME280;51019;46.090;6.350;2023-05-07T03:22:34;96465.31;;;13.48;100.00
64610;BME280;51019;46.090;6.350;2023-05-07T03:25:02;96496.94;;;13.72;100.00
64610;BME280;51019;46.090;6.350;2023-05-07T03:27:29;96503.56;;;14.01;100.00
64610;BME280;51019;46.090;6.350;2023-05-07T03:29:57;96489.47;;;13.35;100.00
64610;BME280;51019;46.090;6.350;2023-05-07T03:32:24;96494.94;;;13.58;100.00
64610;BME280;51019;46.090;6.350;2023-05-07T03:34:56;96494.63;;;13.69;100.00
64610;BME280;51019;46.090;6.350;2023-05-07T03:37:24;96497.94;;;13.71;100.00
64610;BME280;51019;46.090;6.350;2023-05-07T03:39:52;96505.19;;;13.77;100.00
64610;BME280;51019;46.090;6.350;2023-05-07T03:42:19;96512.91;;;13.79;100.00
64610;BME280;51019;46.090;6.350;2023-05-07T03:44:47;96499.75;;;13.71;100.00
64610;BME280;51019;46.090;6.350;2023-05-07T03:47:14;96486.38;;;13.56;100.00
64610;BME280;51019;46.090;6.350;2023-05-07T03:49:43;96501.91;;;13.92;100.00
64610;BME280;51019;46.090;6.350;2023-05-07T03:52:14;96498.94;;;14.11;100.00
64610;BME280;51019;46.090;6.350;2023-05-07T03:54:48;96515.56;;;14.36;100.00
64610;BME280;51019;46.090;6.350;2023-05-07T03:57:16;96500.94;;;14.17;100.00
64610;BME280;51019;46.090;6.350;2023-05-07T03:59:44;96486.78;;;14.10;100.00
64610;BME280;51019;46.090;6.350;2023-05-07T04:02:11;96525.31;;;14.19;100.00
64610;BME280;51019;46.090;6.350;2023-05-07T04:04:39;96524.63;;;13.93;100.00
64610;BME280;51019;46.090;6.350;2023-05-07T04:07:06;96533.19;;;13.95;100.00
64610;BME280;51019;46.090;6.350;2023-05-07T04:09:35;96539.47;;;13.94;100.00
64610;BME280;51019;46.090;6.350;2023-05-07T04:12:04;96543.75;;;14.03;100.00
64610;BME280;51019;46.090;6.350;2023-05-07T04:14:31;96553.13;;;14.13;100.00
64610;BME280;51019;46.090;6.350;2023-05-07T04:16:59;96541.59;;;14.23;100.00
64610;BME280;51019;46.090;6.350;2023-05-07T04:19:27;96555.28;;;14.18;100.00
64610;BME280;51019;46.090;6.350;2023-05-07T04:21:54;96542.75;;;14.12;100.00
64610;BME280;51019;46.090;6.350;2023-05-07T04:24:22;96562.22;;;14.27;100.00
64610;BME280;51019;46.090;6.350;2023-05-07T04:26:51;96559.41;;;14.21;100.00
64610;BME280;51019;46.090;6.350;2023-05-07T04:29:20;96555.59;;;14.23;100.00
64610;BME280;51019;46.090;6.350;2023-05-07T04:31:47;96548.69;;;13.98;100.00
64610;BME280;51019;46.090;6.350;2023-05-07T04:34:15;96542.41;;;13.91;100.00
64610;BME280;51019;46.090;6.350;2023-05-07T04:36:43;96540.44;;;13.76;100.00
64610;BME280;51019;46.090;6.350;2023-05-07T04:39:12;96544.88;;;13.84;100.00
64610;BME280;51019;46.090;6.350;2023-05-07T04:41:39;96538.28;;;13.72;100.00
64610;BME280;51019;46.090;6.350;2023-05-07T04:44:08;96549.84;;;13.95;100.00
64610;BME280;51019;46.090;6.350;2023-05-07T04:46:36;96534.81;;;13.79;100.00
64610;BME280;51019;46.090;6.350;2023-05-07T04:49:03;96538.47;;;13.87;100.00
64610;BME280;51019;46.090;6.350;2023-05-07T04:51:31;96546.22;;;13.88;100.00
64610;BME280;51019;46.090;6.350;2023-05-07T04:53:59;96514.75;;;13.87;100.00
64610;BME280;51019;46.090;6.350;2023-05-07T04:56:28;96551.81;;;14.01;100.00
64610;BME280;51019;46.090;6.350;2023-05-07T04:58:58;96550.66;;;14.12;100.00
64610;BME280;51019;46.090;6.350;2023-05-07T05:01:27;96556.44;;;14.07;100.00
64610;BME280;51019;46.090;6.350;2023-05-07T05:03:54;96549.66;;;14.13;100.00
64610;BME280;51019;46.090;6.350;2023-05-07T05:06:22;96550.84;;;14.18;100.00
64610;BME280;51019;46.090;6.350;2023-05-07T05:08:49;96555.44;;;14.25;100.00
64610;BME280;51019;46.090;6.350;2023-05-07T05:11:16;96539.31;;;14.20;100.00
64610;BME280;51019;46.090;6.350;2023-05-07T05:13:48;96560.06;;;14.39;100.00
64610;BME280;51019;46.090;6.350;2023-05-07T05:16:15;96564.53;;;14.46;100.00
64610;BME280;51019;46.090;6.350;2023-05-07T05:18:44;96565.38;;;14.55;100.00
64610;BME280;51019;46.090;6.350;2023-05-07T05:21:11;96563.53;;;14.72;100.00
64610;BME280;51019;46.090;6.350;2023-05-07T05:23:39;96566.50;;;14.69;100.00
64610;BME280;51019;46.090;6.350;2023-05-07T05:26:06;96563.19;;;14.83;100.00
64610;BME280;51019;46.090;6.350;2023-05-07T05:28:34;96562.03;;;14.85;100.00
64610;BME280;51019;46.090;6.350;2023-05-07T05:31:04;96567.13;;;14.87;100.00
64610;BME280;51019;46.090;6.350;2023-05-07T05:33:32;96561.84;;;14.95;100.00
64610;BME280;51019;46.090;6.350;2023-05-07T05:36:02;96564.25;;;15.13;100.00
64610;BME280;51019;46.090;6.350;2023-05-07T05:38:31;96555.69;;;15.11;100.00
64610;BME280;51019;46.090;6.350;2023-05-07T05:41:01;96534.94;;;15.00;100.00
64610;BME280;51019;46.090;6.350;2023-05-07T05:43:29;96567.09;;;15.11;100.00
64610;BME280;51019;46.090;6.350;2023-05-07T05:45:56;96547.41;;;15.14;100.00
64610;BME280;51019;46.090;6.350;2023-05-07T05:48:26;96562.63;;;15.04;100.00
64610;BME280;51019;46.090;6.350;2023-05-07T05:50:54;96558.97;;;15.13;100.00
64610;BME280;51019;46.090;6.350;2023-05-07T05:53:24;96560.44;;;15.23;100.00
64610;BME280;51019;46.090;6.350;2023-05-07T05:55:53;96534.31;;;14.89;100.00
64610;BME280;51019;46.090;6.350;2023-05-07T05:58:21;96553.06;;;15.11;100.00
64610;BME280;51019;46.090;6.350;2023-05-07T06:00:48;96547.28;;;15.07;100.00
64610;BME280;51019;46.090;6.350;2023-05-07T06:03:17;96519.28;;;14.90;100.00
64610;BME280;51019;46.090;6.350;2023-05-07T06:05:46;96536.06;;;15.05;100.00
64610;BME280;51019;46.090;6.350;2023-05-07T06:08:14;96526.31;;;15.14;100.00
64610;BME280;51019;46.090;6.350;2023-05-07T06:10:43;96528.56;;;15.25;100.00
64610;BME280;51019;46.090;6.350;2023-05-07T06:13:11;96507.66;;;15.15;100.00
64610;BME280;51019;46.090;6.350;2023-05-07T06:15:38;96521.97;;;15.29;100.00
64610;BME280;51019;46.090;6.350;2023-05-07T06:18:05;96518.31;;;15.30;100.00
64610;BME280;51019;46.090;6.350;2023-05-07T06:20:33;96519.31;;;15.29;100.00
64610;BME280;51019;46.090;6.350;2023-05-07T06:23:00;96522.06;;;15.44;100.00
64610;BME280;51019;46.090;6.350;2023-05-07T06:25:28;96517.69;;;15.67;100.00
64610;BME280;51019;46.090;6.350;2023-05-07T06:27:57;96502.38;;;15.46;100.00
64610;BME280;51019;46.090;6.350;2023-05-07T06:30:25;96541.66;;;15.88;100.00
64610;BME280;51019;46.090;6.350;2023-05-07T06:32:53;96536.66;;;15.93;100.00
64610;BME280;51019;46.090;6.350;2023-05-07T06:35:20;96550.09;;;16.07;100.00
64610;BME280;51019;46.090;6.350;2023-05-07T06:37:50;96551.47;;;15.80;100.00
64610;BME280;51019;46.090;6.350;2023-05-07T06:40:17;96549.16;;;15.77;100.00
64610;BME280;51019;46.090;6.350;2023-05-07T06:42:44;96541.69;;;15.80;100.00
64610;BME280;51019;46.090;6.350;2023-05-07T06:45:13;96549.19;;;16.00;100.00
64610;BME280;51019;46.090;6.350;2023-05-07T06:47:40;96541.84;;;16.10;100.00
64610;BME280;51019;46.090;6.350;2023-05-07T06:50:09;96539.41;;;16.46;100.00
64610;BME280;51019;46.090;6.350;2023-05-07T06:52:37;96526.69;;;16.41;100.00
64610;BME280;51019;46.090;6.350;2023-05-07T06:55:06;96535.38;;;16.35;100.00
64610;BME280;51019;46.090;6.350;2023-05-07T06:57:37;96530.16;;;16.42;100.00
64610;BME280;51019;46.090;6.350;2023-05-07T07:00:06;96544.97;;;16.88;100.00
64610;BME280;51019;46.090;6.350;2023-05-07T07:02:37;96518.69;;;16.87;100.00
64610;BME280;51019;46.090;6.350;2023-05-07T07:05:06;96541.69;;;17.45;100.00
64610;BME280;51019;46.090;6.350;2023-05-07T07:07:33;96542.31;;;17.32;100.00
64610;BME280;51019;46.090;6.350;2023-05-07T07:10:01;96546.44;;;17.86;100.00
64610;BME280;51019;46.090;6.350;2023-05-07T07:12:30;96540.28;;;17.64;100.00
64610;BME280;51019;46.090;6.350;2023-05-07T07:14:59;96550.75;;;17.87;100.00
64610;BME280;51019;46.090;6.350;2023-05-07T07:17:28;96543.69;;;17.43;100.00
64610;BME280;51019;46.090;6.350;2023-05-07T07:19:57;96555.94;;;17.44;100.00
64610;BME280;51019;46.090;6.350;2023-05-07T07:22:25;96561.56;;;17.56;100.00
64610;BME280;51019;46.090;6.350;2023-05-07T07:24:54;96556.66;;;17.67;100.00
64610;BME280;51019;46.090;6.350;2023-05-07T07:27:22;96554.66;;;17.69;100.00
64610;BME280;51019;46.090;6.350;2023-05-07T07:29:51;96547.19;;;18.16;100.00
64610;BME280;51019;46.090;6.350;2023-05-07T07:32:20;96561.00;;;18.32;100.00
64610;BME280;51019;46.090;6.350;2023-05-07T07:34:47;96562.41;;;17.56;100.00
64610;BME280;51019;46.090;6.350;2023-05-07T07:37:17;96569.19;;;17.95;100.00
64610;BME280;51019;46.090;6.350;2023-05-07T07:39:45;96561.47;;;18.14;100.00
64610;BME280;51019;46.090;6.350;2023-05-07T07:42:12;96566.47;;;17.88;100.00
64610;BME280;51019;46.090;6.350;2023-05-07T07:44:40;96556.41;;;17.84;100.00
64610;BME280;51019;46.090;6.350;2023-05-07T07:47:07;96554.75;;;17.97;100.00
64610;BME280;51019;46.090;6.350;2023-05-07T07:49:34;96562.88;;;17.96;100.00
64610;BME280;51019;46.090;6.350;2023-05-07T07:52:03;96554.00;;;18.03;100.00
64610;BME280;51019;46.090;6.350;2023-05-07T07:54:32;96562.06;;;17.95;100.00
64610;BME280;51019;46.090;6.350;2023-05-07T07:57:00;96559.63;;;18.15;100.00
64610;BME280;51019;46.090;6.350;2023-05-07T07:59:27;96562.31;;;18.43;100.00
64610;BME280;51019;46.090;6.350;2023-05-07T08:01:55;96568.19;;;19.09;100.00
64610;BME280;51019;46.090;6.350;2023-05-07T08:04:27;96559.06;;;18.90;100.00
64610;BME280;51019;46.090;6.350;2023-05-07T08:06:55;96554.91;;;19.09;100.00
64610;BME280;51019;46.090;6.350;2023-05-07T08:09:23;96563.00;;;19.29;100.00
64610;BME280;51019;46.090;6.350;2023-05-07T08:11:53;96554.03;;;19.30;100.00
64610;BME280;51019;46.090;6.350;2023-05-07T08:14:23;96558.03;;;19.53;100.00
64610;BME280;51019;46.090;6.350;2023-05-07T08:16:51;96561.75;;;18.97;100.00
64610;BME280;51019;46.090;6.350;2023-05-07T08:19:20;96558.59;;;18.80;100.00
64610;BME280;51019;46.090;6.350;2023-05-07T08:21:47;96559.31;;;18.67;100.00
64610;BME280;51019;46.090;6.350;2023-05-07T08:24:16;96553.56;;;18.92;100.00
64610;BME280;51019;46.090;6.350;2023-05-07T08:26:45;96555.22;;;19.27;100.00
64610;BME280;51019;46.090;6.350;2023-05-07T08:29:15;96549.03;;;19.20;100.00
64610;BME280;51019;46.090;6.350;2023-05-07T08:31:44;96561.34;;;19.62;100.00
64610;BME280;51019;46.090;6.350;2023-05-07T08:34:12;96558.19;;;19.93;100.00
64610;BME280;51019;46.090;6.350;2023-05-07T08:36:39;96538.19;;;19.49;100.00
64610;BME280;51019;46.090;6.350;2023-05-07T08:39:08;96552.13;;;19.51;100.00
64610;BME280;51019;46.090;6.350;2023-05-07T08:41:36;96544.41;;;19.63;96.32
64610;BME280;51019;46.090;6.350;2023-05-07T08:44:07;96551.38;;;19.77;95.33
64610;BME280;51019;46.090;6.350;2023-05-07T08:46:45;96551.38;;;19.77;91.23
64610;BME280;51019;46.090;6.350;2023-05-07T08:49:13;96546.16;;;19.97;90.83
64610;BME280;51019;46.090;6.350;2023-05-07T08:51:41;96553.66;;;19.80;98.40
64610;BME280;51019;46.090;6.350;2023-05-07T08:54:10;96562.00;;;19.71;96.67
64610;BME280;51019;46.090;6.350;2023-05-07T08:56:38;96531.38;;;19.40;91.99
64610;BME280;51019;46.090;6.350;2023-05-07T08:59:06;96537.09;;;19.44;91.54
64610;BME280;51019;46.090;6.350;2023-05-07T09:01:33;96552.38;;;19.70;92.52
64610;BME280;51019;46.090;6.350;2023-05-07T09:04:03;96557.53;;;19.78;93.02
64610;BME280;51019;46.090;6.350;2023-05-07T09:06:32;96553.44;;;19.82;93.28
64610;BME280;51019;46.090;6.350;2023-05-07T09:09:01;96551.84;;;19.94;89.20
64610;BME280;51019;46.090;6.350;2023-05-07T09:11:30;96553.84;;;19.79;89.51
64610;BME280;51019;46.090;6.350;2023-05-07T09:13:58;96546.56;;;20.07;88.35
64610;BME280;51019;46.090;6.350;2023-05-07T09:16:29;96546.44;;;20.48;82.32
64610;BME280;51019;46.090;6.350;2023-05-07T09:18:58;96556.69;;;20.71;76.27
64610;BME280;51019;46.090;6.350;2023-05-07T09:21:28;96543.19;;;20.53;72.55
64610;BME280;51019;46.090;6.350;2023-05-07T09:23:55;96555.28;;;20.62;74.88
64610;BME280;51019;46.090;6.350;2023-05-07T09:26:22;96548.88;;;20.89;72.88
64610;BME280;51019;46.090;6.350;2023-05-07T09:28:51;96539.88;;;20.97;70.69
64610;BME280;51019;46.090;6.350;2023-05-07T09:31:18;96563.44;;;21.07;71.18
64610;BME280;51019;46.090;6.350;2023-05-07T09:33:48;96559.13;;;20.92;71.07
64610;BME280;51019;46.090;6.350;2023-05-07T09:36:16;96571.06;;;20.77;70.49
64610;BME280;51019;46.090;6.350;2023-05-07T09:38:46;96562.00;;;21.24;71.86
64610;BME280;51019;46.090;6.350;2023-05-07T09:41:13;96561.00;;;20.98;70.97
64610;BME280;51019;46.090;6.350;2023-05-07T09:43:40;96539.25;;;21.21;70.46
64610;BME280;51019;46.090;6.350;2023-05-07T09:46:11;96556.47;;;21.32;69.30
64610;BME280;51019;46.090;6.350;2023-05-07T09:48:41;96555.94;;;21.61;69.30
64610;BME280;51019;46.090;6.350;2023-05-07T09:51:16;96542.94;;;21.07;72.74
64610;BME280;51019;46.090;6.350;2023-05-07T09:53:48;96554.03;;;20.71;71.36
64610;BME280;51019;46.090;6.350;2023-05-07T09:56:19;96535.13;;;20.20;74.91
64610;BME280;51019;46.090;6.350;2023-05-07T09:58:48;96558.50;;;21.17;70.78
64610;BME280;51019;46.090;6.350;2023-05-07T10:01:17;96552.78;;;20.67;74.19
64610;BME280;51019;46.090;6.350;2023-05-07T10:03:48;96552.72;;;20.21;73.06
64610;BME280;51019;46.090;6.350;2023-05-07T10:06:19;96552.31;;;20.24;74.51
64610;BME280;51019;46.090;6.350;2023-05-07T10:08:49;96556.69;;;20.71;72.87
64610;BME280;51019;46.090;6.350;2023-05-07T10:11:19;96556.47;;;20.40;75.82
64610;BME280;51019;46.090;6.350;2023-05-07T10:13:47;96558.44;;;20.11;76.56
64610;BME280;51019;46.090;6.350;2023-05-07T10:16:16;96556.78;;;20.04;74.80
64610;BME280;51019;46.090;6.350;2023-05-07T10:18:44;96555.97;;;20.03;75.96
64610;BME280;51019;46.090;6.350;2023-05-07T10:21:17;96559.22;;;19.92;77.82
64610;BME280;51019;46.090;6.350;2023-05-07T10:23:46;96548.97;;;19.89;72.48
64610;BME280;51019;46.090;6.350;2023-05-07T10:26:20;96560.28;;;20.04;72.51
64610;BME280;51019;46.090;6.350;2023-05-07T10:28:52;96556.00;;;20.23;72.13
64610;BME280;51019;46.090;6.350;2023-05-07T10:31:36;96563.75;;;20.05;72.76
64610;BME280;51019;46.090;6.350;2023-05-07T10:34:07;96570.44;;;19.46;78.10
64610;BME280;51019;46.090;6.350;2023-05-07T10:36:37;96570.63;;;19.38;78.41
64610;BME280;51019;46.090;6.350;2023-05-07T10:39:06;96567.25;;;19.51;77.12
64610;BME280;51019;46.090;6.350;2023-05-07T10:41:36;96566.31;;;19.37;77.31
64610;BME280;51019;46.090;6.350;2023-05-07T10:44:03;96557.84;;;19.55;73.70
64610;BME280;51019;46.090;6.350;2023-05-07T10:46:31;96574.59;;;19.49;75.16
64610;BME280;51019;46.090;6.350;2023-05-07T10:49:07;96579.41;;;19.80;73.81
64610;BME280;51019;46.090;6.350;2023-05-07T10:51:37;96573.13;;;19.94;73.52
64610;BME280;51019;46.090;6.350;2023-05-07T10:54:21;96546.31;;;19.89;71.72
64610;BME280;51019;46.090;6.350;2023-05-07T10:56:51;96571.38;;;20.27;71.23
64610;BME280;51019;46.090;6.350;2023-05-07T10:59:42;96582.31;;;20.52;72.68
64610;BME280;51019;46.090;6.350;2023-05-07T11:02:10;96580.44;;;20.46;72.40
64610;BME280;51019;46.090;6.350;2023-05-07T11:04:40;96570.13;;;20.23;70.69
64610;BME280;51019;46.090;6.350;2023-05-07T11:07:26;96575.22;;;20.05;72.06
64610;BME280;51019;46.090;6.350;2023-05-07T11:09:55;96571.81;;;19.64;75.46
64610;BME280;51019;46.090;6.350;2023-05-07T11:15:50;96595.50;;;19.31;80.24
64610;BME280;51019;46.090;6.350;2023-05-07T11:18:19;96591.06;;;19.10;77.90
64610;BME280;51019;46.090;6.350;2023-05-07T11:20:49;96583.69;;;18.77;79.80
64610;BME280;51019;46.090;6.350;2023-05-07T11:26:29;96563.03;;;18.73;82.89
64610;BME280;51019;46.090;6.350;2023-05-07T11:28:57;96580.09;;;18.64;82.68
64610;BME280;51019;46.090;6.350;2023-05-07T11:31:28;96573.34;;;18.61;86.15
64610;BME280;51019;46.090;6.350;2023-05-07T11:33:55;96578.53;;;18.69;86.98
64610;BME280;51019;46.090;6.350;2023-05-07T11:36:23;96579.44;;;18.40;87.85
64610;BME280;51019;46.090;6.350;2023-05-07T11:38:52;96589.13;;;18.48;96.84
64610;BME280;51019;46.090;6.350;2023-05-07T11:41:21;96582.81;;;18.49;97.79
64610;BME280;51019;46.090;6.350;2023-05-07T11:43:58;96591.19;;;18.52;94.60
64610;BME280;51019;46.090;6.350;2023-05-07T11:46:30;96589.47;;;18.60;87.26
64610;BME280;51019;46.090;6.350;2023-05-07T11:48:58;96560.81;;;18.34;90.80
64610;BME280;51019;46.090;6.350;2023-05-07T11:51:25;96575.78;;;18.20;87.36
64610;BME280;51019;46.090;6.350;2023-05-07T11:53:53;96595.13;;;18.35;94.66
64610;BME280;51019;46.090;6.350;2023-05-07T11:56:21;96590.56;;;18.29;100.00
64610;BME280;51019;46.090;6.350;2023-05-07T11:58:49;96600.84;;;18.18;100.00
64610;BME280;51019;46.090;6.350;2023-05-07T12:01:17;96614.44;;;18.29;100.00
64610;BME280;51019;46.090;6.350;2023-05-07T12:03:46;96606.16;;;18.18;100.00
64610;BME280;51019;46.090;6.350;2023-05-07T12:06:16;96621.50;;;18.01;100.00
64610;BME280;51019;46.090;6.350;2023-05-07T12:08:47;96629.09;;;17.74;100.00
64610;BME280;51019;46.090;6.350;2023-05-07T12:11:18;96624.53;;;17.54;100.00
64610;BME280;51019;46.090;6.350;2023-05-07T12:13:48;96633.50;;;17.38;100.00
64610;BME280;51019;46.090;6.350;2023-05-07T12:16:16;96637.88;;;17.31;100.00
64610;BME280;51019;46.090;6.350;2023-05-07T12:18:46;96647.28;;;17.33;100.00
64610;BME280;51019;46.090;6.350;2023-05-07T12:21:13;96654.19;;;17.20;100.00
64610;BME280;51019;46.090;6.350;2023-05-07T12:23:42;96664.69;;;17.13;100.00
64610;BME280;51019;46.090;6.350;2023-05-07T12:26:10;96664.63;;;16.84;100.00
64610;BME280;51019;46.090;6.350;2023-05-07T12:28:38;96677.09;;;16.75;100.00
64610;BME280;51019;46.090;6.350;2023-05-07T12:31:06;96663.56;;;16.47;100.00
64610;BME280;51019;46.090;6.350;2023-05-07T12:33:34;96663.44;;;16.10;100.00
64610;BME280;51019;46.090;6.350;2023-05-07T12:36:08;96682.34;;;16.29;100.00
64610;BME280;51019;46.090;6.350;2023-05-07T12:38:37;96672.09;;;16.26;100.00
64610;BME280;51019;46.090;6.350;2023-05-07T12:41:06;96693.13;;;16.20;100.00
64610;BME280;51019;46.090;6.350;2023-05-07T12:43:35;96697.88;;;16.02;100.00
64610;BME280;51019;46.090;6.350;2023-05-07T12:46:04;96706.56;;;16.10;100.00
64610;BME280;51019;46.090;6.350;2023-05-07T12:48:32;96701.72;;;16.22;100.00
64610;BME280;51019;46.090;6.350;2023-05-07T12:51:01;96708.44;;;15.93;100.00
64610;BME280;51019;46.090;6.350;2023-05-07T12:53:30;96707.47;;;15.94;100.00
64610;BME280;51019;46.090;6.350;2023-05-07T12:55:59;96709.63;;;15.91;100.00
64610;BME280;51019;46.090;6.350;2023-05-07T12:58:29;96712.44;;;15.89;100.00
64610;BME280;51019;46.090;6.350;2023-05-07T13:00:58;96716.22;;;15.95;100.00
64610;BME280;51019;46.090;6.350;2023-05-07T13:03:27;96712.78;;;15.86;100.00
64610;BME280;51019;46.090;6.350;2023-05-07T13:05:58;96721.28;;;16.05;100.00
64610;BME280;51019;46.090;6.350;2023-05-07T13:08:28;96691.31;;;15.81;100.00